sensor_id;sensor_type;location;lat;lon;timestamp;pressure;altitude;pressure_sealevel;temperature;humidity
28267;BME280;15525;45.568;5.448;2023-09-08T00:01:49;98176.25;;;24.54;46.70
28267;BME280;15525;45.568;5.448;2023-09-08T00:04:14;98178.66;;;24.40;46.89
28267;BME280;15525;45.568;5.448;2023-09-08T00:06:40;98173.72;;;24.30;47.55
28267;BME280;15525;45.568;5.448;2023-09-08T00:09:07;98179.75;;;24.20;47.65
28267;BME280;15525;45.568;5.448;2023-09-08T00:11:32;98179.03;;;24.23;47.60
28267;BME280;15525;45.568;5.448;2023-09-08T00:13:58;98174.59;;;24.34;47.09
28267;BME280;15525;45.568;5.448;2023-09-08T00:16:23;98182.47;;;24.20;47.47
28267;BME280;15525;45.568;5.448;2023-09-08T00:18:49;98183.25;;;23.89;48.17
28267;BME280;15525;45.568;5.448;2023-09-08T00:21:15;98174.19;;;24.01;47.87
28267;BME280;15525;45.568;5.448;2023-09-08T00:23:40;98169.88;;;24.00;48.07
28267;BME280;15525;45.568;5.448;2023-09-08T00:26:06;98174.47;;;24.11;47.92
28267;BME280;15525;45.568;5.448;2023-09-08T00:28:31;98179.41;;;24.06;47.91
28267;BME280;15525;45.568;5.448;2023-09-08T00:30:57;98170.03;;;24.07;48.11
28267;BME280;15525;45.568;5.448;2023-09-08T00:33:24;98176.66;;;24.06;48.00
28267;BME280;15525;45.568;5.448;2023-09-08T00:35:50;98179.94;;;23.96;48.05
28267;BME280;15525;45.568;5.448;2023-09-08T00:38:16;98172.44;;;24.08;48.00
28267;BME280;15525;45.568;5.448;2023-09-08T00:40:41;98181.25;;;24.17;47.71
28267;BME280;15525;45.568;5.448;2023-09-08T00:43:07;98165.44;;;23.95;48.04
28267;BME280;15525;45.568;5.448;2023-09-08T00:45:40;98179.53;;;23.82;48.41
28267;BME280;15525;45.568;5.448;2023-09-08T00:48:06;98179.13;;;24.11;48.43
28267;BME280;15525;45.568;5.448;2023-09-08T00:50:33;98174.00;;;23.94;47.81
28267;BME280;15525;45.568;5.448;2023-09-08T00:52:58;98183.81;;;23.95;47.95
28267;BME280;15525;45.568;5.448;2023-09-08T00:55:24;98172.44;;;24.08;47.76
28267;BME280;15525;45.568;5.448;2023-09-08T00:57:50;98174.63;;;24.03;47.61
28267;BME280;15525;45.568;5.448;2023-09-08T01:00:15;98175.38;;;23.88;47.92
28267;BME280;15525;45.568;5.448;2023-09-08T01:02:41;98185.91;;;23.86;48.02
28267;BME280;15525;45.568;5.448;2023-09-08T01:05:06;98180.78;;;23.84;48.00
28267;BME280;15525;45.568;5.448;2023-09-08T01:07:32;98170.63;;;23.69;48.48
28267;BME280;15525;45.568;5.448;2023-09-08T01:09:59;98189.38;;;23.71;48.33
28267;BME280;15525;45.568;5.448;2023-09-08T01:12:29;98176.44;;;23.68;48.73
28267;BME280;15525;45.568;5.448;2023-09-08T01:14:55;98178.66;;;23.78;48.14
28267;BME280;15525;45.568;5.448;2023-09-08T01:17:20;98184.94;;;23.94;47.95
28267;BME280;15525;45.568;5.448;2023-09-08T01:19:47;98185.88;;;23.70;48.30
28267;BME280;15525;45.568;5.448;2023-09-08T01:27:29;98163.91;;;23.82;48.27
28267;BME280;15525;45.568;5.448;2023-09-08T01:29:58;98171.50;;;23.89;47.94
28267;BME280;15525;45.568;5.448;2023-09-08T01:32:24;98164.03;;;23.86;47.86
28267;BME280;15525;45.568;5.448;2023-09-08T01:34:50;98173.19;;;23.78;47.91
28267;BME280;15525;45.568;5.448;2023-09-08T01:37:16;98179.25;;;23.71;48.21
28267;BME280;15525;45.568;5.448;2023-09-08T01:39:42;98182.78;;;23.56;48.55
28267;BME280;15525;45.568;5.448;2023-09-08T01:42:07;98181.78;;;23.49;48.57
28267;BME280;15525;45.568;5.448;2023-09-08T01:44:33;98183.56;;;23.72;48.04
28267;BME280;15525;45.568;5.448;2023-09-08T01:46:58;98179.81;;;23.77;48.00
28267;BME280;15525;45.568;5.448;2023-09-08T01:49:24;98182.53;;;23.77;47.88
28267;BME280;15525;45.568;5.448;2023-09-08T01:51:49;98165.75;;;23.63;48.16
28267;BME280;15525;45.568;5.448;2023-09-08T01:54:15;98175.53;;;23.64;48.46
28267;BME280;15525;45.568;5.448;2023-09-08T01:56:41;98183.22;;;23.74;48.04
28267;BME280;15525;45.568;5.448;2023-09-08T01:59:06;98184.44;;;23.61;48.32
28267;BME280;15525;45.568;5.448;2023-09-08T02:01:32;98178.28;;;23.64;48.39
28267;BME280;15525;45.568;5.448;2023-09-08T02:03:57;98190.28;;;23.75;48.10
28267;BME280;15525;45.568;5.448;2023-09-08T02:06:22;98183.78;;;23.79;47.96
28267;BME280;15525;45.568;5.448;2023-09-08T02:08:48;98170.44;;;23.78;47.92
28267;BME280;15525;45.568;5.448;2023-09-08T02:11:13;98182.41;;;23.73;47.84
28267;BME280;15525;45.568;5.448;2023-09-08T02:13:42;98186.03;;;23.77;47.83
28267;BME280;15525;45.568;5.448;2023-09-08T02:16:13;98179.91;;;23.53;48.20
28267;BME280;15525;45.568;5.448;2023-09-08T02:18:38;98186.25;;;23.41;48.49
28267;BME280;15525;45.568;5.448;2023-09-08T02:21:04;98180.00;;;23.41;48.22
28267;BME280;15525;45.568;5.448;2023-09-08T02:23:29;98184.56;;;23.37;48.40
28267;BME280;15525;45.568;5.448;2023-09-08T02:25:55;98183.25;;;23.46;48.18
28267;BME280;15525;45.568;5.448;2023-09-08T02:28:20;98188.44;;;23.36;48.39
28267;BME280;15525;45.568;5.448;2023-09-08T02:30:46;98190.94;;;23.41;48.46
28267;BME280;15525;45.568;5.448;2023-09-08T02:33:11;98184.94;;;23.51;48.09
28267;BME280;15525;45.568;5.448;2023-09-08T02:35:37;98182.03;;;23.59;47.78
28267;BME280;15525;45.568;5.448;2023-09-08T02:38:03;98195.19;;;23.54;47.79
28267;BME280;15525;45.568;5.448;2023-09-08T02:40:29;98184.22;;;23.38;48.12
28267;BME280;15525;45.568;5.448;2023-09-08T02:42:54;98193.84;;;23.48;47.97
28267;BME280;15525;45.568;5.448;2023-09-08T02:45:20;98188.22;;;23.29;48.25
28267;BME280;15525;45.568;5.448;2023-09-08T02:47:45;98193.59;;;23.25;48.43
28267;BME280;15525;45.568;5.448;2023-09-08T02:50:10;98195.41;;;23.33;48.29
28267;BME280;15525;45.568;5.448;2023-09-08T02:52:36;98193.13;;;23.23;48.28
28267;BME280;15525;45.568;5.448;2023-09-08T02:55:02;98195.78;;;23.20;48.36
28267;BME280;15525;45.568;5.448;2023-09-08T02:57:27;98198.72;;;23.15;48.35
28267;BME280;15525;45.568;5.448;2023-09-08T02:59:53;98194.09;;;23.03;48.76
28267;BME280;15525;45.568;5.448;2023-09-08T03:02:22;98198.88;;;23.06;48.69
28267;BME280;15525;45.568;5.448;2023-09-08T03:04:47;98197.31;;;22.93;48.71
28267;BME280;15525;45.568;5.448;2023-09-08T03:07:12;98204.69;;;22.93;48.76
28267;BME280;15525;45.568;5.448;2023-09-08T03:09:38;98205.72;;;23.00;48.71
28267;BME280;15525;45.568;5.448;2023-09-08T03:12:04;98204.69;;;23.05;48.54
28267;BME280;15525;45.568;5.448;2023-09-08T03:14:29;98204.38;;;22.94;48.81
28267;BME280;15525;45.568;5.448;2023-09-08T03:16:55;98205.63;;;22.97;48.54
28267;BME280;15525;45.568;5.448;2023-09-08T03:19:20;98205.44;;;22.78;48.82
28267;BME280;15525;45.568;5.448;2023-09-08T03:21:46;98208.84;;;22.75;49.06
28267;BME280;15525;45.568;5.448;2023-09-08T03:24:11;98210.63;;;22.95;48.62
28267;BME280;15525;45.568;5.448;2023-09-08T03:26:36;98204.75;;;22.81;48.84
28267;BME280;15525;45.568;5.448;2023-09-08T03:29:02;98209.63;;;22.87;48.76
28267;BME280;15525;45.568;5.448;2023-09-08T03:31:28;98209.97;;;22.86;48.66
28267;BME280;15525;45.568;5.448;2023-09-08T03:33:53;98202.25;;;22.64;48.88
28267;BME280;15525;45.568;5.448;2023-09-08T03:36:19;98203.28;;;22.59;49.49
28267;BME280;15525;45.568;5.448;2023-09-08T03:38:44;98202.59;;;22.62;49.25
28267;BME280;15525;45.568;5.448;2023-09-08T03:41:09;98216.59;;;22.73;49.06
28267;BME280;15525;45.568;5.448;2023-09-08T03:43:36;98203.19;;;22.56;49.29
28267;BME280;15525;45.568;5.448;2023-09-08T03:46:01;98207.06;;;22.67;49.27
28267;BME280;15525;45.568;5.448;2023-09-08T03:48:26;98206.81;;;22.36;49.69
28267;BME280;15525;45.568;5.448;2023-09-08T03:50:52;98205.09;;;22.19;49.80
28267;BME280;15525;45.568;5.448;2023-09-08T03:53:17;98207.25;;;22.38;49.81
28267;BME280;15525;45.568;5.448;2023-09-08T03:55:43;98196.56;;;22.57;49.44
28267;BME280;15525;45.568;5.448;2023-09-08T03:58:08;98208.06;;;22.50;49.56
28267;BME280;15525;45.568;5.448;2023-09-08T04:00:34;98206.16;;;22.63;49.18
28267;BME280;15525;45.568;5.448;2023-09-08T04:03:00;98206.00;;;22.71;48.94
28267;BME280;15525;45.568;5.448;2023-09-08T04:05:25;98213.84;;;22.73;49.12
28267;BME280;15525;45.568;5.448;2023-09-08T04:07:51;98207.72;;;22.76;48.88
28267;BME280;15525;45.568;5.448;2023-09-08T04:10:16;98204.63;;;22.77;48.84
28267;BME280;15525;45.568;5.448;2023-09-08T04:12:42;98199.63;;;22.67;49.01
28267;BME280;15525;45.568;5.448;2023-09-08T04:15:08;98211.59;;;22.51;49.43
28267;BME280;15525;45.568;5.448;2023-09-08T04:17:34;98199.97;;;22.42;49.66
28267;BME280;15525;45.568;5.448;2023-09-08T04:20:02;98203.94;;;22.44;49.50
28267;BME280;15525;45.568;5.448;2023-09-08T04:22:30;98203.66;;;22.58;49.41
28267;BME280;15525;45.568;5.448;2023-09-08T04:24:55;98205.91;;;22.68;49.16
28267;BME280;15525;45.568;5.448;2023-09-08T04:27:22;98211.56;;;22.75;48.85
28267;BME280;15525;45.568;5.448;2023-09-08T04:29:48;98210.22;;;22.69;48.98
28267;BME280;15525;45.568;5.448;2023-09-08T04:32:13;98212.72;;;22.62;49.02
28267;BME280;15525;45.568;5.448;2023-09-08T04:34:40;98207.06;;;22.55;49.20
28267;BME280;15525;45.568;5.448;2023-09-08T04:37:05;98224.81;;;22.49;49.31
28267;BME280;15525;45.568;5.448;2023-09-08T04:39:32;98214.81;;;22.53;49.25
28267;BME280;15525;45.568;5.448;2023-09-08T04:41:58;98215.00;;;22.48;49.41
28267;BME280;15525;45.568;5.448;2023-09-08T04:44:23;98215.88;;;22.28;49.75
28267;BME280;15525;45.568;5.448;2023-09-08T04:46:49;98212.94;;;22.33;49.61
28267;BME280;15525;45.568;5.448;2023-09-08T04:49:14;98214.84;;;22.08;50.17
28267;BME280;15525;45.568;5.448;2023-09-08T04:51:40;98222.69;;;22.10;50.18
28267;BME280;15525;45.568;5.448;2023-09-08T04:54:05;98219.97;;;22.10;50.24
28267;BME280;15525;45.568;5.448;2023-09-08T04:56:31;98218.25;;;22.17;49.79
28267;BME280;15525;45.568;5.448;2023-09-08T04:58:56;98231.56;;;22.19;50.05
28267;BME280;15525;45.568;5.448;2023-09-08T05:01:23;98224.97;;;22.08;50.19
28267;BME280;15525;45.568;5.448;2023-09-08T05:03:49;98224.28;;;22.11;49.99
28267;BME280;15525;45.568;5.448;2023-09-08T05:06:14;98225.56;;;22.25;49.66
28267;BME280;15525;45.568;5.448;2023-09-08T05:08:39;98226.34;;;22.38;49.38
28267;BME280;15525;45.568;5.448;2023-09-08T05:11:05;98229.56;;;22.52;49.15
28267;BME280;15525;45.568;5.448;2023-09-08T05:13:30;98230.03;;;22.54;49.17
28267;BME280;15525;45.568;5.448;2023-09-08T05:15:56;98228.78;;;22.51;49.21
28267;BME280;15525;45.568;5.448;2023-09-08T05:18:28;98234.34;;;22.55;49.08
28267;BME280;15525;45.568;5.448;2023-09-08T05:20:53;98239.56;;;22.60;48.94
28267;BME280;15525;45.568;5.448;2023-09-08T05:23:19;98235.94;;;22.56;49.02
28267;BME280;15525;45.568;5.448;2023-09-08T05:25:45;98238.31;;;22.57;48.94
28267;BME280;15525;45.568;5.448;2023-09-08T05:28:10;98243.78;;;22.57;49.20
28267;BME280;15525;45.568;5.448;2023-09-08T05:30:36;98237.50;;;22.57;49.14
28267;BME280;15525;45.568;5.448;2023-09-08T05:33:01;98247.72;;;22.36;49.44
28267;BME280;15525;45.568;5.448;2023-09-08T05:35:27;98242.47;;;22.19;49.92
28267;BME280;15525;45.568;5.448;2023-09-08T05:37:52;98255.19;;;22.03;50.51
28267;BME280;15525;45.568;5.448;2023-09-08T05:40:18;98245.13;;;21.83;51.11
28267;BME280;15525;45.568;5.448;2023-09-08T05:42:45;98253.13;;;22.00;50.81
28267;BME280;15525;45.568;5.448;2023-09-08T05:45:10;98247.38;;;22.25;49.94
28267;BME280;15525;45.568;5.448;2023-09-08T05:47:36;98257.72;;;22.32;49.88
28267;BME280;15525;45.568;5.448;2023-09-08T05:50:01;98255.34;;;22.42;49.76
28267;BME280;15525;45.568;5.448;2023-09-08T05:52:27;98257.41;;;22.45;49.69
28267;BME280;15525;45.568;5.448;2023-09-08T05:54:53;98265.72;;;22.61;49.58
28267;BME280;15525;45.568;5.448;2023-09-08T05:57:19;98258.22;;;22.70;49.27
28267;BME280;15525;45.568;5.448;2023-09-08T05:59:44;98257.06;;;22.71;49.41
28267;BME280;15525;45.568;5.448;2023-09-08T06:02:10;98261.84;;;22.86;49.03
28267;BME280;15525;45.568;5.448;2023-09-08T06:04:35;98265.44;;;23.02;49.02
28267;BME280;15525;45.568;5.448;2023-09-08T06:07:01;98265.59;;;22.93;49.30
28267;BME280;15525;45.568;5.448;2023-09-08T06:09:27;98261.03;;;22.85;49.67
28267;BME280;15525;45.568;5.448;2023-09-08T06:11:52;98260.03;;;22.90;49.91
28267;BME280;15525;45.568;5.448;2023-09-08T06:14:17;98268.66;;;23.04;49.50
28267;BME280;15525;45.568;5.448;2023-09-08T06:16:43;98272.94;;;23.17;49.34
28267;BME280;15525;45.568;5.448;2023-09-08T06:19:08;98271.78;;;23.30;48.97
28267;BME280;15525;45.568;5.448;2023-09-08T06:21:33;98271.31;;;23.40;49.04
28267;BME280;15525;45.568;5.448;2023-09-08T06:23:59;98280.97;;;23.49;48.79
28267;BME280;15525;45.568;5.448;2023-09-08T06:26:24;98282.41;;;23.59;48.59
28267;BME280;15525;45.568;5.448;2023-09-08T06:28:50;98276.09;;;23.70;48.42
28267;BME280;15525;45.568;5.448;2023-09-08T06:31:15;98270.38;;;23.75;48.50
28267;BME280;15525;45.568;5.448;2023-09-08T06:33:41;98270.28;;;23.72;48.69
28267;BME280;15525;45.568;5.448;2023-09-08T06:36:06;98275.91;;;23.91;48.47
28267;BME280;15525;45.568;5.448;2023-09-08T06:38:32;98274.25;;;24.02;48.27
28267;BME280;15525;45.568;5.448;2023-09-08T06:40:58;98271.00;;;24.12;48.34
28267;BME280;15525;45.568;5.448;2023-09-08T06:43:23;98267.84;;;24.25;48.36
28267;BME280;15525;45.568;5.448;2023-09-08T06:45:49;98270.59;;;24.41;48.10
28267;BME280;15525;45.568;5.448;2023-09-08T06:48:15;98264.31;;;24.56;48.03
28267;BME280;15525;45.568;5.448;2023-09-08T06:50:41;98268.56;;;24.69;48.05
28267;BME280;15525;45.568;5.448;2023-09-08T06:53:06;98276.56;;;24.93;47.61
28267;BME280;15525;45.568;5.448;2023-09-08T06:55:32;98275.03;;;25.11;47.41
28267;BME280;15525;45.568;5.448;2023-09-08T06:57:58;98274.66;;;25.28;47.48
28267;BME280;15525;45.568;5.448;2023-09-08T07:00:23;98272.63;;;25.44;47.18
28267;BME280;15525;45.568;5.448;2023-09-08T07:02:48;98269.81;;;25.59;46.97
28267;BME280;15525;45.568;5.448;2023-09-08T07:05:17;98270.97;;;25.77;46.71
28267;BME280;15525;45.568;5.448;2023-09-08T07:07:42;98269.41;;;25.95;46.56
28267;BME280;15525;45.568;5.448;2023-09-08T07:10:08;98279.34;;;26.03;46.18
28267;BME280;15525;45.568;5.448;2023-09-08T07:12:34;98276.94;;;26.21;46.02
28267;BME280;15525;45.568;5.448;2023-09-08T07:15:00;98280.78;;;26.39;45.57
28267;BME280;15525;45.568;5.448;2023-09-08T07:17:25;98288.63;;;26.59;45.27
28267;BME280;15525;45.568;5.448;2023-09-08T07:19:51;98280.97;;;26.72;45.08
28267;BME280;15525;45.568;5.448;2023-09-08T07:22:17;98279.28;;;26.90;44.73
28267;BME280;15525;45.568;5.448;2023-09-08T07:24:42;98271.72;;;27.09;44.23
28267;BME280;15525;45.568;5.448;2023-09-08T07:27:09;98282.91;;;27.20;43.84
28267;BME280;15525;45.568;5.448;2023-09-08T07:29:34;98280.22;;;27.23;43.50
28267;BME280;15525;45.568;5.448;2023-09-08T07:32:00;98279.59;;;27.37;43.33
28267;BME280;15525;45.568;5.448;2023-09-08T07:34:25;98283.84;;;27.60;42.92
28267;BME280;15525;45.568;5.448;2023-09-08T07:36:51;98289.53;;;27.78;42.49
28267;BME280;15525;45.568;5.448;2023-09-08T07:39:16;98291.69;;;27.88;42.56
28267;BME280;15525;45.568;5.448;2023-09-08T07:41:42;98284.81;;;28.08;42.19
28267;BME280;15525;45.568;5.448;2023-09-08T07:44:07;98295.97;;;28.22;41.90
28267;BME280;15525;45.568;5.448;2023-09-08T07:46:33;98279.06;;;28.20;41.83
28267;BME280;15525;45.568;5.448;2023-09-08T07:48:59;98284.41;;;28.42;41.62
28267;BME280;15525;45.568;5.448;2023-09-08T07:51:26;98287.72;;;28.62;41.27
28267;BME280;15525;45.568;5.448;2023-09-08T07:53:53;98298.09;;;28.79;40.97
28267;BME280;15525;45.568;5.448;2023-09-08T07:56:18;98295.84;;;28.92;40.80
28267;BME280;15525;45.568;5.448;2023-09-08T07:58:44;98293.28;;;29.16;40.38
28267;BME280;15525;45.568;5.448;2023-09-08T08:01:09;98293.75;;;29.32;39.97
28267;BME280;15525;45.568;5.448;2023-09-08T08:03:35;98285.66;;;29.57;39.70
28267;BME280;15525;45.568;5.448;2023-09-08T08:06:01;98283.00;;;29.81;39.06
28267;BME280;15525;45.568;5.448;2023-09-08T08:08:26;98286.22;;;30.08;38.72
28267;BME280;15525;45.568;5.448;2023-09-08T08:10:52;98291.81;;;30.25;38.69
28267;BME280;15525;45.568;5.448;2023-09-08T08:13:17;98283.16;;;30.48;38.57
28267;BME280;15525;45.568;5.448;2023-09-08T08:15:43;98287.91;;;30.65;38.17
28267;BME280;15525;45.568;5.448;2023-09-08T08:18:10;98287.13;;;30.71;37.99
28267;BME280;15525;45.568;5.448;2023-09-08T08:20:37;98288.72;;;30.86;37.70
28267;BME280;15525;45.568;5.448;2023-09-08T08:23:04;98290.28;;;31.05;37.02
28267;BME280;15525;45.568;5.448;2023-09-08T08:25:30;98284.38;;;31.03;36.80
28267;BME280;15525;45.568;5.448;2023-09-08T08:27:55;98284.72;;;31.29;36.29
28267;BME280;15525;45.568;5.448;2023-09-08T08:30:26;98281.09;;;31.53;35.89
28267;BME280;15525;45.568;5.448;2023-09-08T08:32:52;98292.56;;;31.55;35.87
28267;BME280;15525;45.568;5.448;2023-09-08T08:35:19;98281.44;;;31.69;35.26
28267;BME280;15525;45.568;5.448;2023-09-08T08:37:44;98286.91;;;31.90;34.93
28267;BME280;15525;45.568;5.448;2023-09-08T08:40:10;98279.72;;;32.07;34.90
28267;BME280;15525;45.568;5.448;2023-09-08T08:42:40;98280.81;;;32.16;34.55
28267;BME280;15525;45.568;5.448;2023-09-08T08:45:07;98286.72;;;32.32;34.42
28267;BME280;15525;45.568;5.448;2023-09-08T08:47:33;98291.31;;;32.53;34.03
28267;BME280;15525;45.568;5.448;2023-09-08T08:50:00;98293.56;;;32.65;33.90
28267;BME280;15525;45.568;5.448;2023-09-08T08:52:27;98287.25;;;32.64;33.69
28267;BME280;15525;45.568;5.448;2023-09-08T08:54:53;98277.66;;;32.79;33.64
28267;BME280;15525;45.568;5.448;2023-09-08T08:57:20;98279.94;;;32.91;33.92
28267;BME280;15525;45.568;5.448;2023-09-08T08:59:47;98280.47;;;33.16;33.31
28267;BME280;15525;45.568;5.448;2023-09-08T09:02:14;98276.38;;;33.28;33.20
28267;BME280;15525;45.568;5.448;2023-09-08T09:04:40;98267.22;;;33.34;32.92
28267;BME280;15525;45.568;5.448;2023-09-08T09:07:07;98262.59;;;33.58;32.40
28267;BME280;15525;45.568;5.448;2023-09-08T09:09:32;98264.31;;;33.78;31.72
28267;BME280;15525;45.568;5.448;2023-09-08T09:11:58;98257.50;;;34.13;30.90
28267;BME280;15525;45.568;5.448;2023-09-08T09:14:24;98264.03;;;33.99;30.77
28267;BME280;15525;45.568;5.448;2023-09-08T09:16:50;98268.91;;;33.58;31.03
28267;BME280;15525;45.568;5.448;2023-09-08T09:19:23;98270.63;;;33.82;31.15
28267;BME280;15525;45.568;5.448;2023-09-08T09:21:53;98270.63;;;34.12;30.36
28267;BME280;15525;45.568;5.448;2023-09-08T09:24:36;98265.94;;;34.06;29.44
28267;BME280;15525;45.568;5.448;2023-09-08T09:27:03;98265.16;;;34.05;28.92
28267;BME280;15525;45.568;5.448;2023-09-08T09:29:33;98264.84;;;34.00;28.54
28267;BME280;15525;45.568;5.448;2023-09-08T09:32:03;98267.19;;;34.31;27.59
28267;BME280;15525;45.568;5.448;2023-09-08T09:34:29;98267.69;;;34.49;27.74
28267;BME280;15525;45.568;5.448;2023-09-08T09:36:55;98261.88;;;34.40;27.92
28267;BME280;15525;45.568;5.448;2023-09-08T09:39:22;98253.66;;;34.33;27.33
28267;BME280;15525;45.568;5.448;2023-09-08T09:41:49;98256.09;;;34.54;27.60
28267;BME280;15525;45.568;5.448;2023-09-08T09:44:18;98257.31;;;34.23;27.53
28267;BME280;15525;45.568;5.448;2023-09-08T09:46:45;98261.78;;;34.17;27.89
28267;BME280;15525;45.568;5.448;2023-09-08T09:49:15;98267.28;;;34.74;27.29
28267;BME280;15525;45.568;5.448;2023-09-08T09:51:47;98262.88;;;35.22;26.68
28267;BME280;15525;45.568;5.448;2023-09-08T09:54:13;98260.16;;;35.19;26.47
28267;BME280;15525;45.568;5.448;2023-09-08T09:56:40;98262.63;;;35.13;26.63
28267;BME280;15525;45.568;5.448;2023-09-08T09:59:11;98262.53;;;35.20;26.28
28267;BME280;15525;45.568;5.448;2023-09-08T10:01:38;98262.09;;;35.22;26.38
28267;BME280;15525;45.568;5.448;2023-09-08T10:04:04;98256.44;;;35.25;26.10
28267;BME280;15525;45.568;5.448;2023-09-08T10:06:35;98251.91;;;35.55;25.77
28267;BME280;15525;45.568;5.448;2023-09-08T10:09:02;98244.84;;;35.89;25.61
28267;BME280;15525;45.568;5.448;2023-09-08T10:11:42;98244.34;;;35.36;25.50
28267;BME280;15525;45.568;5.448;2023-09-08T10:14:08;98250.91;;;35.02;25.83
28267;BME280;15525;45.568;5.448;2023-09-08T10:16:38;98241.13;;;35.37;25.72
28267;BME280;15525;45.568;5.448;2023-09-08T10:19:07;98250.63;;;35.40;25.54
28267;BME280;15525;45.568;5.448;2023-09-08T10:21:38;98246.84;;;35.69;25.66
28267;BME280;15525;45.568;5.448;2023-09-08T10:24:15;98250.13;;;35.84;25.76
28267;BME280;15525;45.568;5.448;2023-09-08T10:26:46;98249.91;;;35.36;25.20
28267;BME280;15525;45.568;5.448;2023-09-08T10:29:16;98246.00;;;35.10;25.48
28267;BME280;15525;45.568;5.448;2023-09-08T10:31:42;98247.66;;;35.50;25.31
28267;BME280;15525;45.568;5.448;2023-09-08T10:34:08;98237.75;;;35.03;25.23
28267;BME280;15525;45.568;5.448;2023-09-08T10:36:34;98242.28;;;35.40;25.14
28267;BME280;15525;45.568;5.448;2023-09-08T10:44:44;98240.94;;;35.48;25.59
28267;BME280;15525;45.568;5.448;2023-09-08T10:47:39;98238.84;;;35.91;24.95
28267;BME280;15525;45.568;5.448;2023-09-08T10:50:06;98240.25;;;36.34;24.48
28267;BME280;15525;45.568;5.448;2023-09-08T10:52:34;98240.34;;;36.47;24.49
28267;BME280;15525;45.568;5.448;2023-09-08T10:55:00;98242.41;;;36.43;24.70
28267;BME280;15525;45.568;5.448;2023-09-08T10:57:27;98239.19;;;36.44;24.59
28267;BME280;15525;45.568;5.448;2023-09-08T11:00:01;98242.53;;;36.04;24.64
28267;BME280;15525;45.568;5.448;2023-09-08T11:02:41;98231.00;;;36.53;24.41
28267;BME280;15525;45.568;5.448;2023-09-08T11:05:11;98232.56;;;36.38;24.00
28267;BME280;15525;45.568;5.448;2023-09-08T11:07:39;98235.72;;;36.72;23.64
28267;BME280;15525;45.568;5.448;2023-09-08T11:10:06;98228.59;;;36.71;23.49
28267;BME280;15525;45.568;5.448;2023-09-08T11:12:31;98241.41;;;36.53;23.82
28267;BME280;15525;45.568;5.448;2023-09-08T11:14:57;98236.78;;;36.46;23.53
28267;BME280;15525;45.568;5.448;2023-09-08T11:17:28;98233.88;;;36.34;23.71
28267;BME280;15525;45.568;5.448;2023-09-08T11:19:54;98222.88;;;36.91;23.13
28267;BME280;15525;45.568;5.448;2023-09-08T11:22:22;98225.69;;;37.35;23.02
28267;BME280;15525;45.568;5.448;2023-09-08T11:24:49;98214.31;;;37.14;23.16
28267;BME280;15525;45.568;5.448;2023-09-08T11:27:14;98208.47;;;37.37;22.84
28267;BME280;15525;45.568;5.448;2023-09-08T11:29:40;98211.31;;;37.21;22.31
28267;BME280;15525;45.568;5.448;2023-09-08T11:32:09;98213.38;;;37.74;22.17
28267;BME280;15525;45.568;5.448;2023-09-08T11:34:37;98209.56;;;37.27;22.33
28267;BME280;15525;45.568;5.448;2023-09-08T11:37:14;98206.19;;;37.03;23.26
28267;BME280;15525;45.568;5.448;2023-09-08T11:39:42;98196.81;;;37.67;22.45
28267;BME280;15525;45.568;5.448;2023-09-08T11:42:09;98190.81;;;37.93;21.70
28267;BME280;15525;45.568;5.448;2023-09-08T11:44:35;98202.63;;;37.60;22.28
28267;BME280;15525;45.568;5.448;2023-09-08T11:47:07;98203.44;;;36.87;22.23
28267;BME280;15525;45.568;5.448;2023-09-08T11:49:37;98197.97;;;36.68;22.53
28267;BME280;15525;45.568;5.448;2023-09-08T11:52:03;98206.41;;;36.80;22.53
28267;BME280;15525;45.568;5.448;2023-09-08T11:54:34;98201.03;;;37.46;22.58
28267;BME280;15525;45.568;5.448;2023-09-08T11:57:02;98191.63;;;38.31;21.81
28267;BME280;15525;45.568;5.448;2023-09-08T11:59:31;98186.25;;;38.24;21.58
28267;BME280;15525;45.568;5.448;2023-09-08T12:01:58;98188.16;;;38.15;21.39
28267;BME280;15525;45.568;5.448;2023-09-08T12:04:23;98178.16;;;37.89;22.13
28267;BME280;15525;45.568;5.448;2023-09-08T12:06:52;98173.38;;;38.27;21.71
28267;BME280;15525;45.568;5.448;2023-09-08T12:09:18;98166.34;;;38.81;21.30
28267;BME280;15525;45.568;5.448;2023-09-08T12:11:45;98167.75;;;39.20;21.56
28267;BME280;15525;45.568;5.448;2023-09-08T12:14:12;98168.66;;;39.17;21.26
28267;BME280;15525;45.568;5.448;2023-09-08T12:16:38;98172.75;;;38.69;21.63
28267;BME280;15525;45.568;5.448;2023-09-08T12:19:04;98168.09;;;37.91;21.90
28267;BME280;15525;45.568;5.448;2023-09-08T12:21:30;98155.47;;;38.24;22.23
28267;BME280;15525;45.568;5.448;2023-09-08T12:23:57;98167.75;;;38.52;22.03
28267;BME280;15525;45.568;5.448;2023-09-08T12:26:24;98160.59;;;38.51;21.43
28267;BME280;15525;45.568;5.448;2023-09-08T12:28:50;98154.25;;;38.72;21.37
28267;BME280;15525;45.568;5.448;2023-09-08T12:31:17;98160.75;;;39.37;20.79
28267;BME280;15525;45.568;5.448;2023-09-08T12:33:43;98152.81;;;39.96;21.09
28267;BME280;15525;45.568;5.448;2023-09-08T12:36:17;98145.84;;;39.49;20.52
28267;BME280;15525;45.568;5.448;2023-09-08T12:38:52;98145.78;;;38.97;20.83
28267;BME280;15525;45.568;5.448;2023-09-08T12:41:18;98149.41;;;38.51;21.23
28267;BME280;15525;45.568;5.448;2023-09-08T12:43:44;98137.69;;;38.99;20.93
28267;BME280;15525;45.568;5.448;2023-09-08T12:46:10;98133.81;;;39.18;20.99
28267;BME280;15525;45.568;5.448;2023-09-08T12:48:35;98136.75;;;39.36;20.46
28267;BME280;15525;45.568;5.448;2023-09-08T12:51:01;98135.31;;;39.31;20.83
28267;BME280;15525;45.568;5.448;2023-09-08T12:53:28;98128.66;;;39.68;20.49
28267;BME280;15525;45.568;5.448;2023-09-08T12:55:53;98135.31;;;40.23;20.37
28267;BME280;15525;45.568;5.448;2023-09-08T12:58:19;98128.75;;;39.77;21.20
28267;BME280;15525;45.568;5.448;2023-09-08T13:00:44;98125.81;;;39.59;21.99
28267;BME280;15525;45.568;5.448;2023-09-08T13:03:10;98126.53;;;40.12;21.99
28267;BME280;15525;45.568;5.448;2023-09-08T13:05:36;98129.72;;;40.32;21.76
28267;BME280;15525;45.568;5.448;2023-09-08T13:08:04;98124.59;;;40.39;21.21